Time;durP1;ratioP1;P1;durP2;ratioP2;P2;SDS_P1;SDS_P2;PMS_P1;PMS_P2;Temp;Humidity;BMP_temperature;BMP_pressure;BME280_temperature;BME280_humidity;BME280_pressure;Samples;Min_cycle;Max_cycle;Signal;HPM_P1;HPM_P2
2023/01/08 00:01:13;;;;;;;180.27;29.75;;;;;;;10.06;74.88;98146.28;5326468;26;20064;-87
2023/01/08 00:03:40;;;;;;;128.45;26.87;;;;;;;9.21;78.84;98131.47;5345925;26;20059;-87
2023/01/08 00:06:11;;;;;;;154.30;28.83;;;;;;;9.45;76.66;98135.72;5346291;26;20108;-87
2023/01/08 00:08:38;;;;;;;147.02;29.63;;;;;;;8.17;84.74;98128.97;5346360;26;20064;-87
2023/01/08 00:11:05;;;;;;;177.43;28.20;;;;;;;8.16;84.54;98122.97;5345838;26;20403;-87
2023/01/08 00:13:33;;;;;;;106.53;27.60;;;;;;;8.57;82.59;98129.38;5346452;26;20391;-87
2023/01/08 00:16:09;;;;;;;156.25;28.50;;;;;;;9.22;80.05;98133.13;5346304;26;20052;-87
2023/01/08 00:18:36;;;;;;;160.40;28.90;;;;;;;8.42;84.42;98129.06;5345904;26;20379;-87
2023/01/08 00:21:03;;;;;;;142.00;27.50;;;;;;;8.48;83.30;98132.25;5346456;26;20056;-87
2023/01/08 00:23:30;;;;;;;158.98;27.83;;;;;;;9.52;78.59;98128.63;5346391;26;20058;-87
2023/01/08 00:26:00;;;;;;;164.77;29.50;;;;;;;8.90;80.34;98123.97;5345800;26;20048;-87
2023/01/08 00:28:28;;;;;;;138.20;25.70;;;;;;;8.09;84.52;98119.78;5346379;26;20075;-87
2023/01/08 00:30:55;;;;;;;211.32;30.70;;;;;;;8.86;81.51;98114.69;5346150;26;20121;-87
2023/01/08 00:33:22;;;;;;;182.60;30.10;;;;;;;9.10;81.26;98103.53;5345792;26;20103;-87
2023/01/08 00:35:49;;;;;;;132.70;27.37;;;;;;;10.12;75.43;98109.97;5346234;26;20380;-87
2023/01/08 00:38:15;;;;;;;97.40;22.67;;;;;;;10.97;70.27;98102.16;5345798;26;20080;-87
2023/01/08 00:40:42;;;;;;;168.62;26.23;;;;;;;10.68;71.67;98095.66;5345614;26;20365;-87
2023/01/08 00:43:09;;;;;;;139.95;26.80;;;;;;;9.95;75.65;98103.78;5345992;26;20419;-87
2023/01/08 00:45:36;;;;;;;;;;;;;;;10.50;74.61;98105.00;5346112;26;20044;-87
2023/01/08 00:48:03;;;;;;;120.22;25.35;;;;;;;10.29;75.92;98101.56;5346219;26;19971;-87
2023/01/08 00:50:30;;;;;;;51.33;24.12;;;;;;;10.61;75.27;98094.22;5346021;26;20060;-87
2023/01/08 00:52:57;;;;;;;239.30;29.87;;;;;;;11.24;72.44;98095.78;5325940;26;20181;-87
2023/01/08 00:55:24;;;;;;;247.40;29.08;;;;;;;10.90;72.63;98095.59;5345944;26;20076;-87
2023/01/08 00:57:51;;;;;;;267.70;30.77;;;;;;;11.04;71.58;98100.12;5346029;26;20061;-87
2023/01/08 01:00:17;;;;;;;;;;;;;;;10.62;71.25;98101.91;5345889;26;20121;-87
2023/01/08 01:02:44;;;;;;;134.70;25.73;;;;;;;12.23;63.71;98099.81;5345921;26;20474;-87
2023/01/08 01:05:14;;;;;;;212.93;28.25;;;;;;;11.83;66.63;98104.34;5345969;26;20089;-87
2023/01/08 01:07:42;;;;;;;160.43;25.85;;;;;;;11.46;66.94;98094.81;5326017;26;20075;-87
2023/01/08 01:10:10;;;;;;;148.15;26.48;;;;;;;10.76;71.06;98100.50;5326058;26;20057;-87
2023/01/08 01:12:38;;;;;;;171.27;26.27;;;;;;;11.93;66.98;98102.16;5345926;26;20052;-87
2023/01/08 01:15:09;;;;;;;157.30;26.83;;;;;;;11.40;69.05;98108.03;5345464;26;20044;-87
2023/01/08 01:17:41;;;;;;;196.10;26.83;;;;;;;10.59;72.61;98102.03;5346864;26;20070;-87
2023/01/08 01:20:10;;;;;;;120.65;24.80;;;;;;;11.46;69.72;98092.22;5346567;26;20053;-87
2023/01/08 01:22:37;;;;;;;327.05;31.87;;;;;;;10.17;73.13;98088.31;5346368;26;20435;-87
2023/01/08 01:25:05;;;;;;;191.02;22.70;;;;;;;10.46;74.87;98087.97;5346693;26;20044;-87
2023/01/08 01:27:32;;;;;;;207.12;23.02;;;;;;;10.92;73.23;98089.44;5346444;26;20060;-87
2023/01/08 01:29:59;;;;;;;270.75;25.62;;;;;;;11.28;71.23;98091.31;5346631;26;20075;-87
2023/01/08 01:32:26;;;;;;;141.05;21.98;;;;;;;10.52;74.45;98092.03;5327107;26;20049;-87
2023/01/08 01:34:52;;;;;;;;;;;;;;;10.51;75.43;98080.87;5346737;26;20048;-87
2023/01/08 01:37:19;;;;;;;252.02;24.85;;;;;;;9.62;78.40;98082.75;5346972;26;19964;-87
2023/01/08 01:39:46;;;;;;;;;;;;;;;9.95;77.23;98090.91;5346779;26;20071;-87
2023/01/08 01:42:38;;;;;;;414.75;32.22;;;;;;;10.25;77.08;98079.38;5346306;26;19966;-87
2023/01/08 01:45:10;;;;;;;;;;;;;;;10.29;77.15;98085.25;5347040;26;20045;-87
2023/01/08 01:47:39;;;;;;;202.13;20.27;;;;;;;10.57;74.87;98079.78;5346915;26;19963;-87
2023/01/08 01:50:20;;;;;;;356.30;27.95;;;;;;;11.20;71.69;98070.16;5346088;26;20117;-87
2023/01/08 01:53:14;;;;;;;373.02;28.87;;;;;;;9.79;78.21;98067.47;5346740;26;20058;-87
2023/01/08 01:55:42;;;;;;;314.92;27.62;;;;;;;9.64;80.10;98056.03;5326749;26;20059;-87
2023/01/08 01:58:09;;;;;;;457.55;32.65;;;;;;;10.26;77.23;98049.28;5346514;26;20071;-87
2023/01/08 02:00:36;;;;;;;;;;;;;;;9.98;77.54;98041.78;5346904;26;20061;-87
2023/01/08 02:03:04;;;;;;;395.45;31.42;;;;;;;9.26;80.85;98040.31;5346382;26;19955;-87
2023/01/08 02:05:48;;;;;;;404.75;30.30;;;;;;;10.24;76.61;98039.03;5327181;26;20098;-87
2023/01/08 02:08:47;;;;;;;349.90;26.67;;;;;;;10.33;76.13;98030.91;5346676;26;20061;-87
2023/01/08 02:11:23;;;;;;;158.77;18.87;;;;;;;10.00;76.17;98033.13;5346052;26;20406;-87
2023/01/08 02:14:01;;;;;;;405.08;28.65;;;;;;;10.09;76.08;98035.31;5327004;26;20099;-87
2023/01/08 02:16:36;;;;;;;341.33;25.17;;;;;;;10.29;74.79;98039.66;5346714;26;20041;-87
2023/01/08 02:19:37;;;;;;;333.27;26.45;;;;;;;9.60;76.49;98043.31;5326938;26;20112;-87
2023/01/08 02:22:22;;;;;;;215.85;21.17;;;;;;;10.20;74.99;98041.75;5320642;26;20142;-87
2023/01/08 02:24:52;;;;;;;317.92;25.95;;;;;;;10.96;71.29;98041.97;5346217;26;20056;-87
2023/01/08 02:27:20;;;;;;;267.23;22.55;;;;;;;10.01;73.68;98032.22;5346945;26;20048;-87
2023/01/08 02:29:47;;;;;;;340.25;26.15;;;;;;;9.76;75.84;98032.34;5326775;26;20064;-85
2023/01/08 02:32:14;;;;;;;372.25;26.90;;;;;;;9.48;77.84;98031.75;5346222;26;20447;-87
2023/01/08 02:34:41;;;;;;;228.70;22.17;;;;;;;9.61;76.57;98040.69;5326887;26;20395;-87
2023/01/08 02:37:08;;;;;;;330.25;25.37;;;;;;;10.19;75.18;98025.44;5346317;26;20049;-87
2023/01/08 02:39:55;;;;;;;342.75;27.73;;;;;;;7.86;85.54;98024.59;5345984;26;20064;-87
2023/01/08 02:42:34;;;;;;;327.73;25.92;;;;;;;9.65;76.84;98026.78;5346590;26;20060;-87
2023/01/08 02:45:04;;;;;;;239.40;22.33;;;;;;;9.59;76.83;98021.88;5346375;26;20047;-87
2023/01/08 02:47:35;;;;;;;331.90;26.12;;;;;;;10.27;74.29;98020.00;5346672;26;20433;-88
2023/01/08 02:50:13;;;;;;;313.02;24.80;;;;;;;9.77;75.99;98015.97;5326859;26;20068;-87
2023/01/08 02:52:46;;;;;;;311.50;26.58;;;;;;;10.48;74.03;98006.22;5326635;26;20060;-87
2023/01/08 02:55:15;;;;;;;167.25;19.52;;;;;;;10.19;73.48;98016.88;5346636;26;20055;-87
2023/01/08 02:57:41;;;;;;;174.25;20.50;;;;;;;10.63;70.59;98010.72;5326771;26;20400;-87
2023/01/08 03:00:09;;;;;;;140.68;18.00;;;;;;;10.19;73.22;98014.31;5345787;26;20057;-87
2023/01/08 03:02:37;;;;;;;159.25;18.58;;;;;;;9.97;74.56;98011.75;5346528;26;20070;-87
2023/01/08 03:05:12;;;;;;;100.95;15.52;;;;;;;9.36;76.98;98017.63;5346632;26;20356;-87
2023/01/08 03:07:39;;;;;;;172.43;17.70;;;;;;;10.03;73.17;98012.37;5326594;26;20048;-87
2023/01/08 03:10:07;;;;;;;70.70;12.60;;;;;;;9.27;76.79;98011.09;5346316;26;20068;-87
2023/01/08 03:12:49;;;;;;;248.73;21.80;;;;;;;9.80;74.62;98005.56;5346619;26;20082;-87
2023/01/08 03:15:23;;;;;;;161.35;16.40;;;;;;;8.29;80.91;97998.31;5326747;26;20056;-87
2023/01/08 03:17:54;;;;;;;116.65;16.48;;;;;;;8.09;83.34;98000.75;5346674;26;20045;-87
2023/01/08 03:20:22;;;;;;;61.70;13.10;;;;;;;8.45;83.07;97997.81;5326328;26;20150;-87
2023/01/08 03:22:53;;;;;;;194.20;20.40;;;;;;;9.33;76.87;97999.69;5326917;26;20093;-87
2023/01/08 03:25:22;;;;;;;88.28;16.77;;;;;;;8.34;83.05;97995.59;5326794;26;20056;-87
2023/01/08 03:27:53;;;;;;;60.17;13.68;;;;;;;9.17;80.11;97991.72;5326384;26;20045;-86
2023/01/08 03:30:21;;;;;;;98.70;15.57;;;;;;;9.12;78.77;97992.78;5326544;26;20118;-86
2023/01/08 03:32:49;;;;;;;143.90;18.70;;;;;;;8.72;80.71;97999.44;5346419;26;20064;-87
2023/01/08 03:35:19;;;;;;;202.93;21.58;;;;;;;8.09;83.87;97993.88;5346107;26;20120;-87
2023/01/08 03:37:53;;;;;;;144.73;20.30;;;;;;;9.11;79.13;97991.13;5326422;26;20048;-87
2023/01/08 03:40:24;;;;;;;162.60;19.37;;;;;;;9.37;77.98;97990.13;5345887;26;20056;-87
2023/01/08 03:42:51;;;;;;;244.10;23.25;;;;;;;9.40;77.70;97984.84;5326124;26;20063;-87
2023/01/08 03:45:18;;;;;;;159.93;20.42;;;;;;;9.89;75.99;97995.78;5346488;26;20066;-87
2023/01/08 03:47:46;;;;;;;144.90;18.50;;;;;;;9.65;76.67;97990.72;5346364;26;20102;-87
2023/01/08 03:50:20;;;;;;;113.88;18.62;;;;;;;9.70;76.06;97982.81;5326538;26;20060;-87
2023/01/08 03:52:47;;;;;;;161.77;19.95;;;;;;;9.68;76.52;97990.63;5326584;26;20068;-87
2023/01/08 03:55:14;;;;;;;;;;;;;;;8.75;78.89;97977.88;5346316;26;20058;-87
2023/01/08 03:57:41;;;;;;;188.57;19.90;;;;;;;9.38;77.79;97987.50;5346566;26;19962;-87
2023/01/08 04:00:08;;;;;;;169.65;19.58;;;;;;;9.07;78.85;97979.28;5346182;26;20065;-87
2023/01/08 04:02:35;;;;;;;122.93;18.65;;;;;;;9.80;74.69;97972.06;5345885;26;20656;-87
2023/01/08 04:05:02;;;;;;;91.10;18.05;;;;;;;9.85;73.84;97974.44;5346301;26;20047;-87
2023/01/08 04:07:29;;;;;;;116.47;18.02;;;;;;;9.86;75.26;97971.81;5346263;26;20103;-88
2023/01/08 04:09:56;;;;;;;91.87;16.62;;;;;;;9.53;75.39;97975.75;5345730;26;20455;-87
2023/01/08 04:12:23;;;;;;;94.00;16.48;;;;;;;9.78;74.82;97970.44;5346389;26;20061;-87
2023/01/08 04:14:50;;;;;;;91.95;17.52;;;;;;;9.17;77.13;97963.41;5346267;26;20063;-87
2023/01/08 04:17:17;;;;;;;;;;;;;;;8.85;77.17;97958.66;5346331;26;20061;-87
2023/01/08 04:19:44;;;;;;;94.35;16.67;;;;;;;9.14;76.76;97960.94;5346162;26;19960;-87
2023/01/08 04:22:11;;;;;;;100.47;16.73;;;;;;;9.79;74.85;97959.25;5346251;26;20056;-87
2023/01/08 04:24:37;;;;;;;82.32;17.08;;;;;;;9.85;74.37;97954.66;5345884;26;20057;-87
2023/01/08 04:27:04;;;;;;;;;;;;;;;10.04;72.88;97953.91;5346601;26;20041;-87
2023/01/08 04:29:31;;;;;;;71.78;16.12;;;;;;;9.89;74.47;97954.53;5346127;26;19955;-87
2023/01/08 04:31:59;;;;;;;86.87;16.65;;;;;;;10.49;70.92;97948.56;5345813;26;20403;-87
2023/01/08 04:34:26;;;;;;;80.45;16.00;;;;;;;10.28;71.85;97945.16;5346205;26;20053;-87
2023/01/08 04:36:52;;;;;;;83.12;15.80;;;;;;;10.15;71.94;97939.66;5346134;26;20045;-87
2023/01/08 04:39:19;;;;;;;;;;;;;;;10.20;73.09;97936.88;5346000;26;20056;-87
2023/01/08 04:41:46;;;;;;;68.18;16.00;;;;;;;9.33;74.37;97947.38;5326544;26;20231;-87
2023/01/08 04:44:13;;;;;;;75.43;15.80;;;;;;;9.30;74.61;97945.75;5345651;26;20063;-87
2023/01/08 04:46:40;;;;;;;;;;;;;;;9.34;73.33;97946.47;5346484;26;20098;-87
2023/01/08 04:49:06;;;;;;;79.22;14.43;;;;;;;9.30;74.37;97956.06;5346146;26;19989;-87
2023/01/08 04:51:33;;;;;;;71.65;15.48;;;;;;;8.43;78.00;97955.91;5345998;26;20125;-87
2023/01/08 04:54:00;;;;;;;62.08;14.68;;;;;;;8.02;79.07;97950.44;5346933;26;20060;-87
2023/01/08 04:56:27;;;;;;;57.17;13.45;;;;;;;8.08;78.45;97953.66;5327238;26;20358;-87
2023/01/08 04:58:54;;;;;;;56.92;14.40;;;;;;;9.24;74.54;97949.41;5346449;26;20061;-87
2023/01/08 05:01:23;;;;;;;97.47;16.92;;;;;;;8.35;77.30;97951.03;5346783;26;20061;-87
2023/01/08 05:04:04;;;;;;;100.75;15.70;;;;;;;8.56;76.00;97952.00;5346762;26;20127;-87
2023/01/08 05:06:31;;;;;;;89.78;17.10;;;;;;;8.95;75.69;97957.41;5326879;26;20054;-87
2023/01/08 05:08:58;;;;;;;56.25;14.13;;;;;;;9.33;74.59;97949.94;5346940;26;20056;-87
2023/01/08 05:11:25;;;;;;;61.88;12.85;;;;;;;9.61;72.70;97950.53;5346673;26;20120;-87
2023/01/08 05:13:52;;;;;;;67.03;14.23;;;;;;;8.79;76.04;97938.28;5346444;26;20451;-87
2023/01/08 05:16:20;;;;;;;86.40;16.02;;;;;;;9.27;75.22;97938.16;5346880;26;20354;-87
2023/01/08 05:18:47;;;;;;;47.80;14.05;;;;;;;8.52;79.34;97940.16;5326965;26;20064;-87
2023/01/08 05:21:14;;;;;;;71.35;15.50;;;;;;;9.22;76.30;97942.63;5346364;26;20101;-87
2023/01/08 05:23:49;;;;;;;77.28;15.70;;;;;;;7.80;83.67;97937.47;5346821;26;20098;-87
2023/01/08 05:26:16;;;;;;;70.35;15.48;;;;;;;8.22;81.72;97922.31;5346526;26;20055;-86
2023/01/08 05:28:43;;;;;;;87.95;16.65;;;;;;;7.97;82.05;97917.16;5346774;26;20061;-87
2023/01/08 05:31:10;;;;;;;53.97;13.95;;;;;;;7.99;81.14;97917.97;5345183;26;20056;-87
2023/01/08 05:33:37;;;;;;;68.03;14.10;;;;;;;8.24;82.19;97924.81;5326721;26;20403;-87
2023/01/08 05:36:09;;;;;;;27.58;10.48;;;;;;;8.51;80.18;97925.63;5346831;26;20105;-87
2023/01/08 05:38:36;;;;;;;69.15;16.08;;;;;;;8.32;80.78;97917.69;5346466;26;20106;-87
2023/01/08 05:41:03;;;;;;;94.47;16.05;;;;;;;7.89;84.27;97916.62;5346151;26;20546;-87
2023/01/08 05:43:30;;;;;;;61.40;14.55;;;;;;;9.14;78.44;97922.31;5346730;26;20464;-87
2023/01/08 05:45:58;;;;;;;58.58;13.10;;;;;;;8.89;78.87;97927.59;5346716;26;20067;-87
2023/01/08 05:48:29;;;;;;;86.70;14.02;;;;;;;8.63;80.63;97922.59;5346390;26;20076;-87
2023/01/08 05:50:56;;;;;;;40.20;10.45;;;;;;;8.96;78.47;97930.78;5346516;26;20060;-87
2023/01/08 05:53:23;;;;;;;;;;;;;;;8.78;78.22;97922.00;5347214;26;20105;-87
2023/01/08 05:55:50;;;;;;;63.80;13.90;;;;;;;6.89;88.08;97918.09;5346409;26;20305;-87
2023/01/08 05:58:18;;;;;;;47.00;13.13;;;;;;;8.05;83.25;97914.34;5346645;26;20406;-87
2023/01/08 06:00:45;;;;;;;111.00;17.50;;;;;;;8.22;82.65;97912.03;5346726;26;20071;-87
2023/01/08 06:03:12;;;;;;;79.80;15.60;;;;;;;7.74;83.82;97909.41;5346192;26;20407;-87
2023/01/08 06:05:39;;;;;;;85.10;16.45;;;;;;;8.49;80.56;97915.38;5346646;26;20047;-87
2023/01/08 06:08:06;;;;;;;90.38;16.85;;;;;;;7.81;84.23;97905.75;5346427;26;20079;-87
2023/01/08 06:10:36;;;;;;;133.90;17.23;;;;;;;7.81;84.76;97909.16;5346877;26;20383;-87
2023/01/08 06:13:08;;;;;;;91.95;15.30;;;;;;;7.75;83.79;97916.22;5327023;26;20105;-87
2023/01/08 06:15:38;;;;;;;141.68;17.10;;;;;;;7.72;84.17;97917.16;5346291;26;20448;-87
2023/01/08 06:18:05;;;;;;;102.25;15.45;;;;;;;7.76;84.17;97916.19;5327174;26;20060;-87
2023/01/08 06:20:32;;;;;;;66.87;14.87;;;;;;;8.47;82.73;97913.75;5326813;26;20124;-87
2023/01/08 06:22:59;;;;;;;105.05;17.75;;;;;;;7.72;83.05;97906.06;5346248;26;20109;-87
2023/01/08 06:25:27;;;;;;;147.90;17.00;;;;;;;7.72;84.91;97911.19;5346819;26;20403;-87
2023/01/08 06:27:54;;;;;;;95.60;14.48;;;;;;;8.23;82.80;97895.72;5346688;26;20074;-87
2023/01/08 06:30:21;;;;;;;190.82;19.52;;;;;;;8.25;81.34;97900.78;5346120;26;20065;-87
2023/01/08 06:32:48;;;;;;;116.43;16.95;;;;;;;7.74;84.85;97901.69;5346653;26;20143;-87
2023/01/08 06:35:15;;;;;;;169.05;17.77;;;;;;;8.27;82.39;97899.00;5346473;26;20045;-87
2023/01/08 06:37:41;;;;;;;;;;;;;;;7.69;84.23;97895.91;5346405;26;20074;-86
2023/01/08 06:40:09;;;;;;;167.55;17.98;;;;;;;7.39;87.53;97895.16;5346662;26;19982;-86
2023/01/08 06:42:36;;;;;;;129.77;16.25;;;;;;;8.03;82.79;97895.56;5346679;26;20049;-87
2023/01/08 06:45:02;;;;;;;;;;;;;;;7.45;87.48;97893.25;5346593;26;20063;-87
2023/01/08 06:47:29;;;;;;;88.15;14.93;;;;;;;8.11;85.32;97898.72;5346682;26;19963;-87
2023/01/08 06:49:58;;;;;;;;;;;;;;;7.86;84.96;97896.16;5346745;26;20060;-86
2023/01/08 06:52:24;;;;;;;152.70;16.45;;;;;;;8.08;84.11;97889.41;5346410;26;19970;-87
2023/01/08 06:54:51;;;;;;;120.60;16.50;;;;;;;8.71;80.90;97894.81;5346660;26;20099;-87
2023/01/08 06:57:18;;;;;;;;;;;;;;;9.08;77.38;97893.44;5346559;26;20068;-87
2023/01/08 06:59:45;;;;;;;107.70;15.70;;;;;;;9.38;77.12;97899.94;5346470;26;20299;-87
2023/01/08 07:02:13;;;;;;;106.82;15.02;;;;;;;8.61;80.46;97899.50;5346558;26;20117;-87
2023/01/08 07:04:40;;;;;;;158.57;17.85;;;;;;;9.17;77.24;97903.38;5346105;26;20098;-87
2023/01/08 07:07:07;;;;;;;124.05;16.90;;;;;;;9.11;82.25;97903.59;5346535;26;20472;-87
2023/01/08 07:09:34;;;;;;;117.72;16.75;;;;;;;8.72;79.37;97898.25;5346372;26;20121;-86
2023/01/08 07:12:01;;;;;;;73.55;12.65;;;;;;;8.87;79.06;97898.50;5346347;26;20044;-87
2023/01/08 07:14:28;;;;;;;103.00;14.45;;;;;;;9.64;76.55;97890.31;5346026;26;20044;-87
2023/01/08 07:16:54;;;;;;;112.45;15.25;;;;;;;9.78;75.61;97894.00;5346522;26;20445;-87
2023/01/08 07:19:21;;;;;;;;;;;;;;;9.64;75.66;97893.72;5346352;26;20071;-87
2023/01/08 07:21:48;;;;;;;57.35;13.43;;;;;;;9.44;76.24;97899.69;5346372;26;19982;-87
2023/01/08 07:24:15;;;;;;;63.17;14.13;;;;;;;8.73;79.61;97894.81;5346519;26;20358;-87
2023/01/08 07:26:42;;;;;;;;;;;;;;;8.49;82.32;97894.78;5346366;26;20465;-87
2023/01/08 07:29:08;;;;;;;93.00;15.20;;;;;;;8.36;84.46;97888.44;5346547;26;19968;-87
2023/01/08 07:31:35;;;;;;;;;;;;;;;8.29;84.67;97894.62;5346532;26;20071;-87
2023/01/08 07:34:02;;;;;;;75.87;15.10;;;;;;;7.42;89.45;97885.62;5346216;26;19956;-87
2023/01/08 07:36:29;;;;;;;125.47;16.45;;;;;;;8.39;85.30;97889.16;5346481;26;20079;-87
2023/01/08 07:38:56;;;;;;;;;;;;;;;9.22;81.63;97886.00;5346409;26;20071;-87
2023/01/08 07:41:22;;;;;;;96.93;15.90;;;;;;;9.80;79.03;97881.87;5346067;26;19963;-87
2023/01/08 07:43:49;;;;;;;129.52;17.00;;;;;;;9.78;78.41;97890.56;5346387;26;20044;-87
2023/01/08 07:46:16;;;;;;;97.32;15.73;;;;;;;9.99;77.68;97875.94;5346339;26;20323;-87
2023/01/08 07:48:43;;;;;;;79.97;14.02;;;;;;;10.45;74.84;97882.53;5345969;26;20068;-87
2023/01/08 07:51:10;;;;;;;88.12;16.40;;;;;;;10.62;75.09;97874.84;5346149;26;20395;-87
2023/01/08 07:53:37;;;;;;;52.60;13.93;;;;;;;10.13;74.98;97866.72;5346089;26;20044;-87
2023/01/08 07:56:06;;;;;;;74.65;16.58;;;;;;;10.03;76.37;97864.59;5346382;26;20068;-87
2023/01/08 07:58:33;;;;;;;38.13;12.18;;;;;;;10.22;76.25;97869.84;5346604;26;20193;-87
2023/01/08 08:01:00;;;;;;;58.67;15.05;;;;;;;10.46;74.00;97853.25;5326010;26;20066;-87
2023/01/08 08:03:27;;;;;;;62.60;15.05;;;;;;;9.86;76.46;97862.75;5346358;26;20402;-87
2023/01/08 08:05:54;;;;;;;89.22;16.30;;;;;;;10.42;74.21;97859.47;5337472;26;232998;-87
2023/01/08 08:08:21;;;;;;;50.83;14.82;;;;;;;9.64;77.34;97852.50;5345845;26;20056;-87
2023/01/08 08:10:48;;;;;;;38.30;13.18;;;;;;;9.20;78.24;97852.59;5345991;26;20051;-87
2023/01/08 08:13:15;;;;;;;33.60;12.45;;;;;;;9.31;79.10;97848.75;5346380;26;20489;-87
2023/01/08 08:15:42;;;;;;;34.08;13.27;;;;;;;7.81;86.25;97842.38;5345884;26;20056;-87
2023/01/08 08:18:09;;;;;;;38.30;13.90;;;;;;;8.85;83.27;97841.12;5346199;26;20111;-87
2023/01/08 08:20:37;;;;;;;39.75;13.77;;;;;;;9.89;78.22;97842.00;5346139;26;20057;-87
2023/01/08 08:23:08;;;;;;;32.15;13.20;;;;;;;9.07;81.17;97843.69;5346026;26;20085;-87
2023/01/08 08:25:36;;;;;;;46.40;13.50;;;;;;;9.64;80.46;97836.22;5346179;26;20098;-87
2023/01/08 08:28:03;;;;;;;35.42;13.40;;;;;;;9.36;80.74;97832.22;5326468;26;20065;-87
2023/01/08 08:30:31;;;;;;;31.08;12.63;;;;;;;9.71;80.39;97822.19;5345684;26;20161;-87
2023/01/08 08:33:00;;;;;;;32.22;13.00;;;;;;;9.75;79.86;97816.81;5346251;26;20043;-87
2023/01/08 08:35:27;;;;;;;24.52;11.55;;;;;;;10.25;80.43;97825.84;5345923;26;20048;-87
2023/01/08 08:37:55;;;;;;;40.35;13.55;;;;;;;10.45;77.05;97817.22;5346029;26;20484;-87
2023/01/08 08:40:22;;;;;;;37.08;14.25;;;;;;;11.14;76.93;97813.03;5346051;26;20096;-87
2023/01/08 08:42:57;;;;;;;36.75;14.32;;;;;;;11.72;74.19;97809.31;5326090;26;20121;-87
2023/01/08 08:45:24;;;;;;;46.65;13.52;;;;;;;12.64;72.53;97820.81;5346058;26;20064;-87
2023/01/08 08:47:51;;;;;;;35.25;12.25;;;;;;;13.38;68.47;97822.75;5346228;26;20061;-87
2023/01/08 08:50:18;;;;;;;32.40;13.00;;;;;;;13.37;66.25;97814.16;5345565;26;20106;-87
2023/01/08 08:52:47;;;;;;;32.47;12.82;;;;;;;13.35;64.83;97818.59;5346060;26;20098;-87
2023/01/08 08:55:16;;;;;;;26.73;12.48;;;;;;;13.96;64.10;97822.78;5346170;26;20071;-88
2023/01/08 08:57:44;;;;;;;27.80;12.73;;;;;;;13.58;63.99;97817.25;5326216;26;20075;-87
2023/01/08 09:00:12;;;;;;;27.10;12.05;;;;;;;14.37;60.53;97819.44;5345752;26;20048;-87
2023/01/08 09:02:39;;;;;;;35.90;12.35;;;;;;;14.28;60.47;97827.78;5345936;26;20048;-87
2023/01/08 09:05:06;;;;;;;23.75;12.18;;;;;;;14.28;60.92;97818.25;5345424;26;20112;-87
2023/01/08 09:07:33;;;;;;;27.30;12.10;;;;;;;14.01;60.63;97822.50;5346063;26;20060;-87
2023/01/08 09:10:00;;;;;;;29.67;12.37;;;;;;;13.92;61.05;97817.84;5345738;26;20053;-87
2023/01/08 09:12:27;;;;;;;26.20;12.43;;;;;;;13.75;61.45;97811.09;5345456;26;20040;-87
2023/01/08 09:14:55;;;;;;;30.30;13.85;;;;;;;11.65;71.23;97795.03;5345894;26;20060;-87
2023/01/08 09:17:24;;;;;;;25.48;12.80;;;;;;;13.58;65.22;97799.94;5345955;26;20053;-87
2023/01/08 09:19:51;;;;;;;24.48;12.30;;;;;;;13.87;66.60;97805.16;5345459;26;20056;-87
2023/01/08 09:22:19;;;;;;;27.92;12.52;;;;;;;14.99;65.17;97799.94;5345803;26;20478;-87
2023/01/08 09:24:45;;;;;;;21.52;11.60;;;;;;;14.97;62.00;97786.19;5345242;26;20052;-87
2023/01/08 09:27:13;;;;;;;21.98;11.30;;;;;;;15.81;61.16;97798.00;5345885;26;20537;-87
2023/01/08 09:29:40;;;;;;;22.33;11.15;;;;;;;16.04;59.22;97794.66;5345636;26;20052;-86
2023/01/08 09:32:07;;;;;;;19.80;11.35;;;;;;;17.27;60.12;97785.00;5345491;26;20474;-87
2023/01/08 09:34:37;;;;;;;20.30;11.57;;;;;;;18.35;54.12;97788.97;5345769;26;20075;-87
2023/01/08 09:37:04;;;;;;;16.33;8.98;;;;;;;19.06;49.35;97776.37;5346199;26;20162;-88
2023/01/08 09:39:32;;;;;;;17.60;9.45;;;;;;;18.30;49.63;97779.84;5346214;26;20119;-88
2023/01/08 09:42:04;;;;;;;16.70;8.32;;;;;;;18.38;51.98;97775.66;5346686;26;20079;-88
2023/01/08 09:44:35;;;;;;;14.57;7.60;;;;;;;19.79;48.57;97775.53;5327091;26;20060;-88
2023/01/08 09:47:03;;;;;;;15.88;7.25;;;;;;;19.34;46.03;97762.66;5346433;26;20537;-88
2023/01/08 09:49:42;;;;;;;14.52;6.82;;;;;;;18.84;47.68;97760.78;5326822;26;20067;-87
2023/01/08 09:52:11;;;;;;;13.55;6.28;;;;;;;19.13;47.46;97747.91;5346684;26;20451;-88
2023/01/08 09:54:39;;;;;;;13.95;6.15;;;;;;;18.53;48.34;97749.31;5326799;26;20146;-88
2023/01/08 09:57:20;;;;;;;13.77;6.35;;;;;;;18.01;48.80;97741.16;5327112;26;20068;-87
2023/01/08 09:59:48;;;;;;;14.90;6.47;;;;;;;18.02;49.02;97748.03;5346419;26;20098;-87
2023/01/08 10:02:19;;;;;;;13.30;6.22;;;;;;;18.70;47.44;97738.34;5346685;26;20059;-87
2023/01/08 10:04:55;;;;;;;12.32;5.85;;;;;;;17.80;49.83;97729.78;5346921;26;20127;-87
2023/01/08 10:07:24;;;;;;;12.80;5.95;;;;;;;17.99;49.61;97726.59;5326978;26;20056;-88
2023/01/08 10:09:51;;;;;;;13.77;6.07;;;;;;;17.47;50.80;97722.72;5327009;26;20112;-87
2023/01/08 10:12:28;;;;;;;12.23;5.93;;;;;;;16.58;52.27;97705.78;5347135;26;20055;-87
2023/01/08 10:15:01;;;;;;;14.57;6.30;;;;;;;15.52;56.79;97707.16;5346584;26;20112;-87
2023/01/08 10:17:39;;;;;;;14.80;6.03;;;;;;;15.82;55.07;97704.25;5327209;26;20067;-87
2023/01/08 10:20:18;;;;;;;12.60;6.00;;;;;;;14.11;60.00;97701.66;5346481;26;20108;-87
2023/01/08 10:22:48;;;;;;;11.30;5.05;;;;;;;13.86;62.73;97697.19;5346375;26;20052;-88
2023/01/08 10:25:18;;;;;;;14.52;5.90;;;;;;;13.78;64.49;97689.88;5346644;26;20116;-87
2023/01/08 10:28:01;;;;;;;14.25;5.72;;;;;;;12.55;69.05;97679.84;5346430;26;20068;-86
2023/01/08 10:30:34;;;;;;;12.77;6.20;;;;;;;12.87;67.67;97674.59;5346636;26;20109;-87
2023/01/08 10:33:04;;;;;;;12.93;5.57;;;;;;;12.74;69.15;97672.69;5346892;26;20048;-87
2023/01/08 10:35:34;;;;;;;12.95;5.90;;;;;;;13.02;68.41;97661.56;5346373;26;20088;-87
2023/01/08 10:38:01;;;;;;;14.35;5.90;;;;;;;13.03;67.26;97652.87;5346623;26;20118;-86
2023/01/08 10:40:43;;;;;;;13.30;5.78;;;;;;;12.59;69.68;97654.63;5346550;26;20418;-86
2023/01/08 10:43:23;;;;;;;14.05;6.15;;;;;;;12.84;68.60;97664.38;5346714;26;20407;-87
2023/01/08 10:46:03;;;;;;;15.13;5.85;;;;;;;12.56;69.32;97658.22;5346878;26;20056;-87
2023/01/08 10:48:36;;;;;;;12.70;5.80;;;;;;;12.68;69.48;97654.09;5346305;26;20064;-87
2023/01/08 10:51:24;;;;;;;12.50;5.30;;;;;;;13.19;68.12;97659.78;5346740;26;20057;-87
2023/01/08 10:53:52;;;;;;;11.52;5.22;;;;;;;12.71;69.91;97661.69;5327391;26;20048;-87
2023/01/08 10:56:24;;;;;;;12.93;5.22;;;;;;;12.93;68.13;97646.56;5346823;26;20114;-86
2023/01/08 10:58:52;;;;;;;12.23;5.32;;;;;;;12.02;72.46;97641.44;5346628;26;20111;-87
2023/01/08 11:01:30;;;;;;;14.43;5.95;;;;;;;12.33;71.77;97638.78;5327017;26;20123;-86
2023/01/08 11:04:02;;;;;;;13.52;6.12;;;;;;;11.60;74.23;97642.81;5327620;26;20123;-87
2023/01/08 11:06:31;;;;;;;13.32;5.55;;;;;;;11.58;75.91;97636.88;5327618;26;20453;-87
2023/01/08 11:09:00;;;;;;;13.82;5.47;;;;;;;11.95;74.28;97635.78;5347140;26;20096;-87
2023/01/08 11:11:35;;;;;;;13.65;5.60;;;;;;;12.13;72.30;97623.59;5346651;26;20048;-86
2023/01/08 11:14:04;;;;;;;13.07;6.03;;;;;;;12.29;72.67;97628.72;5347117;26;20048;-87
2023/01/08 11:16:36;;;;;;;13.90;5.97;;;;;;;11.70;74.63;97625.91;5347083;26;20473;-87
2023/01/08 11:19:04;;;;;;;13.88;5.65;;;;;;;11.62;76.03;97611.72;5327269;26;20075;-87
2023/01/08 11:21:32;;;;;;;13.02;5.60;;;;;;;12.68;71.92;97610.94;5347034;26;20052;-87
2023/01/08 11:24:22;;;;;;;11.57;5.05;;;;;;;12.58;71.27;97596.84;5346608;26;20398;-86
2023/01/08 11:27:02;;;;;;;13.02;5.50;;;;;;;12.79;70.26;97602.53;5346597;26;20056;-87
2023/01/08 11:29:56;;;;;;;14.50;5.95;;;;;;;12.12;73.62;97596.03;5327270;26;20056;-87
2023/01/08 11:32:26;;;;;;;13.02;5.22;;;;;;;12.44;72.22;97596.78;5326650;26;20090;-86
2023/01/08 11:34:53;;;;;;;12.52;5.12;;;;;;;12.67;70.11;97588.56;5346963;26;20513;-87